Flinterduin — PEBT — position and weather

sailwx.info

Track history (hours):
 
Tides and Currents Weather Stations Pressure Air Temp Water Temp Dewpoint Dewpoint Depression Visibility Wind Speed Wind Dir Waves Ship Positions

Flinterduin

Last reported at 2017-Nov-18 10:28 UTC. Time now 2017-Nov-19 16:01 UTC.
Position N 38°15' E 012°27'.

Length 112 m; beam 15 m.

Type: Cargo ship. MMSI: 246484000.

Date/timePositionNaut miles runAvg speedWind from/ knotsBaromVisibWave heightAir tempDewpointWater temp
2017-Nov-18 10:28N 38°15' E 012°27'14 9.5
2017-Nov-18 09:00N 38°16' E 012°45'5 9.7
2017-Nov-18 08:30N 38°16' E 012°51'5 9.7
2017-Nov-18 08:00N 38°16' E 012°57'510.3
2017-Nov-18 07:30N 38°17' E 013°03'510.2
2017-Nov-18 07:00N 38°17' E 013°10'5 9.6
2017-Nov-18 06:30N 38°17' E 013°16'5 9.5
2017-Nov-18 06:00N 38°17' E 013°22'5 9.4
2017-Nov-18 05:30N 38°17' E 013°28'5 9.3
2017-Nov-18 05:00N 38°17' E 013°34'5 9.2
2017-Nov-18 04:30N 38°17' E 013°40'5 9.3
2017-Nov-18 04:00N 38°17' E 013°46'4 9.0
2017-Nov-18 03:31N 38°18' E 013°51'5 9.1
2017-Nov-18 03:00N 38°18' E 013°57'5 9.4
2017-Nov-18 02:31N 38°18' E 014°03'5 9.3
2017-Nov-18 02:00N 38°18' E 014°09'5 9.3
2017-Nov-18 01:30N 38°18' E 014°15'5 9.4
2017-Nov-18 00:58N 38°19' E 014°21'5 9.7
2017-Nov-18 00:24N 38°19' E 014°28'4 9.4
2017-Nov-17 23:58N 38°19' E 014°34'4 9.5
2017-Nov-17 23:30N 38°19' E 014°39'5 9.6
2017-Nov-17 23:00N 38°19' E 014°45'5 9.9
2017-Nov-17 22:30N 38°20' E 014°52'5 9.7
2017-Nov-17 22:00N 38°20' E 014°58'5 9.4
2017-Nov-17 21:30N 38°20' E 015°04'5 9.4
2017-Nov-17 21:00N 38°20' E 015°10'5 9.5
2017-Nov-17 20:30N 38°20' E 015°16'5 9.4
2017-Nov-17 20:00N 38°20' E 015°22'5 9.3
2017-Nov-17 19:30N 38°21' E 015°28'5 9.3
2017-Nov-17 19:00N 38°20' E 015°34'5 9.4
2017-Nov-17 18:31N 38°20' E 015°40'3 6.4
2017-Nov-17 18:00N 38°18' E 015°43'4 8.4
2017-Nov-17 17:30N 38°15' E 015°40'3 6.5
2017-Nov-17 17:00N 38°12' E 015°37'611.0
2017-Nov-17 16:30N 38°07' E 015°37'611.2
2017-Nov-17 16:00N 38°01' E 015°37'510.9
2017-Nov-17 15:30N 37°56' E 015°37'510.2
2017-Nov-17 15:00N 37°52' E 015°41'611.2
2017-Nov-17 14:30N 37°52' E 015°48'611.3
2017-Nov-17 14:00N 37°51' E 015°55'611.2
2017-Nov-17 13:30N 37°49' E 016°03'  
2017-Nov-14 05:30N 40°57' E 028°54'2 3.8
2017-Nov-14 04:55N 40°58' E 028°56'209 7.4
2017-Nov-13 00:49N 44°15' E 030°31'3 9.8
2017-Nov-13 00:30N 44°18' E 030°32'6 9.8
2017-Nov-12 23:55N 44°23' E 030°35'4 9.7
2017-Nov-12 23:28N 44°28' E 030°37'5 9.8
2017-Nov-12 23:00N 44°32' E 030°39'92 9.7
2017-Nov-12 13:29N 46°02' E 031°04'8 8.4
2017-Nov-12 12:29N 46°10' E 031°00'5 9.7
2017-Nov-12 12:00N 46°14' E 030°55'7 9.7
2017-Nov-12 11:17N 46°17' E 030°47'3 9.9
2017-Nov-12 10:59N 46°19' E 030°43'2 1.8
2017-Nov-12 09:54N 46°19' E 030°40'0 0.0
2017-Nov-12 01:55N 46°19' E 030°40'0 0.0
2017-Nov-10 10:54N 46°19' E 030°40'1 0.0
2017-Nov-08 15:46N 46°19' E 030°41'  
Track history (hours):
 
Tides and Currents Weather Stations Pressure Air Temp Water Temp Dewpoint Dewpoint Depression Visibility Wind Speed Wind Dir Waves Ship Positions

Flinterduin

Last reported at 2017-Nov-18 10:28 UTC. Time now 2017-Nov-19 16:01 UTC.
Position N 38°15' E 012°27'.

Length 112 m; beam 15 m.

Type: Cargo ship. MMSI: 246484000.

Date/timePositionNaut miles runAvg speedWind from/ knotsBaromVisibWave heightAir tempDewpointWater temp
2017-Nov-18 10:28N 38°15' E 012°27'14 9.5
2017-Nov-18 09:00N 38°16' E 012°45'5 9.7
2017-Nov-18 08:30N 38°16' E 012°51'5 9.7
2017-Nov-18 08:00N 38°16' E 012°57'510.3
2017-Nov-18 07:30N 38°17' E 013°03'510.2
2017-Nov-18 07:00N 38°17' E 013°10'5 9.6
2017-Nov-18 06:30N 38°17' E 013°16'5 9.5
2017-Nov-18 06:00N 38°17' E 013°22'5 9.4
2017-Nov-18 05:30N 38°17' E 013°28'5 9.3
2017-Nov-18 05:00N 38°17' E 013°34'5 9.2
2017-Nov-18 04:30N 38°17' E 013°40'5 9.3
2017-Nov-18 04:00N 38°17' E 013°46'4 9.0
2017-Nov-18 03:31N 38°18' E 013°51'5 9.1
2017-Nov-18 03:00N 38°18' E 013°57'5 9.4
2017-Nov-18 02:31N 38°18' E 014°03'5 9.3
2017-Nov-18 02:00N 38°18' E 014°09'5 9.3
2017-Nov-18 01:30N 38°18' E 014°15'5 9.4
2017-Nov-18 00:58N 38°19' E 014°21'5 9.7
2017-Nov-18 00:24N 38°19' E 014°28'4 9.4
2017-Nov-17 23:58N 38°19' E 014°34'4 9.5
2017-Nov-17 23:30N 38°19' E 014°39'5 9.6
2017-Nov-17 23:00N 38°19' E 014°45'5 9.9
2017-Nov-17 22:30N 38°20' E 014°52'5 9.7
2017-Nov-17 22:00N 38°20' E 014°58'5 9.4
2017-Nov-17 21:30N 38°20' E 015°04'5 9.4
2017-Nov-17 21:00N 38°20' E 015°10'5 9.5
2017-Nov-17 20:30N 38°20' E 015°16'5 9.4
2017-Nov-17 20:00N 38°20' E 015°22'5 9.3
2017-Nov-17 19:30N 38°21' E 015°28'5 9.3
2017-Nov-17 19:00N 38°20' E 015°34'5 9.4
2017-Nov-17 18:31N 38°20' E 015°40'3 6.4
2017-Nov-17 18:00N 38°18' E 015°43'4 8.4
2017-Nov-17 17:30N 38°15' E 015°40'3 6.5
2017-Nov-17 17:00N 38°12' E 015°37'611.0
2017-Nov-17 16:30N 38°07' E 015°37'611.2
2017-Nov-17 16:00N 38°01' E 015°37'510.9
2017-Nov-17 15:30N 37°56' E 015°37'510.2
2017-Nov-17 15:00N 37°52' E 015°41'611.2
2017-Nov-17 14:30N 37°52' E 015°48'611.3
2017-Nov-17 14:00N 37°51' E 015°55'611.2
2017-Nov-17 13:30N 37°49' E 016°03'  
2017-Nov-14 05:30N 40°57' E 028°54'2 3.8
2017-Nov-14 04:55N 40°58' E 028°56'209 7.4
2017-Nov-13 00:49N 44°15' E 030°31'3 9.8
2017-Nov-13 00:30N 44°18' E 030°32'6 9.8
2017-Nov-12 23:55N 44°23' E 030°35'4 9.7
2017-Nov-12 23:28N 44°28' E 030°37'5 9.8
2017-Nov-12 23:00N 44°32' E 030°39'92 9.7
2017-Nov-12 13:29N 46°02' E 031°04'8 8.4
2017-Nov-12 12:29N 46°10' E 031°00'5 9.7
2017-Nov-12 12:00N 46°14' E 030°55'7 9.7
2017-Nov-12 11:17N 46°17' E 030°47'3 9.9
2017-Nov-12 10:59N 46°19' E 030°43'2 1.8
2017-Nov-12 09:54N 46°19' E 030°40'0 0.0
2017-Nov-12 01:55N 46°19' E 030°40'0 0.0
2017-Nov-10 10:54N 46°19' E 030°40'1 0.0
2017-Nov-08 15:46N 46°19' E 030°41'  

Dump ship's entire track history